sensor_id;sensor_type;location;lat;lon;timestamp;pressure;altitude;pressure_sealevel;temperature;humidity
46534;BME280;32260;52.008;4.752;2023-04-21T00:02:10;101676.13;;;11.36;59.16
46534;BME280;32260;52.008;4.752;2023-04-21T00:04:40;101676.16;;;11.34;60.75
46534;BME280;32260;52.008;4.752;2023-04-21T00:07:06;101679.72;;;11.31;59.38
46534;BME280;32260;52.008;4.752;2023-04-21T00:09:34;101679.75;;;11.28;60.53
46534;BME280;32260;52.008;4.752;2023-04-21T00:12:00;101686.81;;;11.26;60.80
46534;BME280;32260;52.008;4.752;2023-04-21T00:14:26;101693.06;;;11.22;61.42
46534;BME280;32260;52.008;4.752;2023-04-21T00:16:52;101694.84;;;11.19;61.33
46534;BME280;32260;52.008;4.752;2023-04-21T00:19:19;101693.13;;;11.16;61.00
46534;BME280;32260;52.008;4.752;2023-04-21T00:21:45;101688.69;;;11.15;61.03
46534;BME280;32260;52.008;4.752;2023-04-21T00:24:11;101686.94;;;11.14;60.30
46534;BME280;32260;52.008;4.752;2023-04-21T00:26:37;101695.81;;;11.13;60.73
46534;BME280;32260;52.008;4.752;2023-04-21T00:29:04;101678.13;;;11.09;61.57
46534;BME280;32260;52.008;4.752;2023-04-21T00:31:30;101682.56;;;11.08;61.96
46534;BME280;32260;52.008;4.752;2023-04-21T00:33:56;101679.03;;;11.08;62.77
46534;BME280;32260;52.008;4.752;2023-04-21T00:36:22;101675.50;;;11.07;62.39
46534;BME280;32260;52.008;4.752;2023-04-21T00:38:49;101661.34;;;11.08;62.64
46534;BME280;32260;52.008;4.752;2023-04-21T00:41:16;101653.38;;;11.10;61.93
46534;BME280;32260;52.008;4.752;2023-04-21T00:44:03;101648.00;;;11.19;61.79
46534;BME280;32260;52.008;4.752;2023-04-21T00:46:30;101641.00;;;11.12;62.09
46534;BME280;32260;52.008;4.752;2023-04-21T00:48:57;101640.97;;;11.13;61.69
46534;BME280;32260;52.008;4.752;2023-04-21T00:51:24;101640.94;;;11.15;62.74
46534;BME280;32260;52.008;4.752;2023-04-21T00:53:51;101629.47;;;11.14;62.16
46534;BME280;32260;52.008;4.752;2023-04-21T00:56:17;101634.78;;;11.14;62.14
46534;BME280;32260;52.008;4.752;2023-04-21T00:58:45;101631.25;;;11.15;61.49
46534;BME280;32260;52.008;4.752;2023-04-21T01:01:12;101640.06;;;11.16;63.01
46534;BME280;32260;52.008;4.752;2023-04-21T01:03:39;101633.00;;;11.15;62.77
46534;BME280;32260;52.008;4.752;2023-04-21T01:06:05;101626.81;;;11.16;61.93
46534;BME280;32260;52.008;4.752;2023-04-21T01:08:32;101627.69;;;11.15;62.65
46534;BME280;32260;52.008;4.752;2023-04-21T01:10:59;101626.81;;;11.16;62.81
46534;BME280;32260;52.008;4.752;2023-04-21T01:13:25;101629.50;;;11.13;63.31
46534;BME280;32260;52.008;4.752;2023-04-21T01:15:51;101631.25;;;11.12;63.12
46534;BME280;32260;52.008;4.752;2023-04-21T01:18:18;101633.91;;;11.12;62.53
46534;BME280;32260;52.008;4.752;2023-04-21T01:20:44;101640.09;;;11.11;63.00
46534;BME280;32260;52.008;4.752;2023-04-21T01:23:10;101634.81;;;11.10;63.62
46534;BME280;32260;52.008;4.752;2023-04-21T01:25:37;101641.91;;;11.08;64.79
46534;BME280;32260;52.008;4.752;2023-04-21T01:28:03;101639.25;;;11.08;64.55
46534;BME280;32260;52.008;4.752;2023-04-21T01:30:29;101623.34;;;11.08;63.22
46534;BME280;32260;52.008;4.752;2023-04-21T01:32:55;101625.09;;;11.09;64.50
46534;BME280;32260;52.008;4.752;2023-04-21T01:35:23;101626.91;;;11.07;64.59
46534;BME280;32260;52.008;4.752;2023-04-21T01:37:49;101625.13;;;11.06;65.36
46534;BME280;32260;52.008;4.752;2023-04-21T01:40:15;101625.13;;;11.06;64.47
46534;BME280;32260;52.008;4.752;2023-04-21T01:42:42;101625.13;;;11.06;65.88
46534;BME280;32260;52.008;4.752;2023-04-21T01:45:08;101614.53;;;11.06;64.08
46534;BME280;32260;52.008;4.752;2023-04-21T01:47:35;101617.19;;;11.06;66.05
46534;BME280;32260;52.008;4.752;2023-04-21T01:50:01;101604.78;;;11.06;64.43
46534;BME280;32260;52.008;4.752;2023-04-21T01:52:28;101602.13;;;11.06;65.33
46534;BME280;32260;52.008;4.752;2023-04-21T01:54:54;101598.56;;;11.09;66.00
46534;BME280;32260;52.008;4.752;2023-04-21T01:57:21;101596.81;;;11.08;66.61
46534;BME280;32260;52.008;4.752;2023-04-21T01:59:47;101593.28;;;11.09;65.55
46534;BME280;32260;52.008;4.752;2023-04-21T02:02:14;101591.50;;;11.11;66.41
46534;BME280;32260;52.008;4.752;2023-04-21T02:04:40;101583.50;;;11.12;65.90
46534;BME280;32260;52.008;4.752;2023-04-21T02:07:06;101591.44;;;11.14;64.85
46534;BME280;32260;52.008;4.752;2023-04-21T02:09:32;101583.47;;;11.17;64.85
46534;BME280;32260;52.008;4.752;2023-04-21T02:11:59;101578.19;;;11.15;66.74
46534;BME280;32260;52.008;4.752;2023-04-21T02:14:25;101583.47;;;11.17;66.19
46534;BME280;32260;52.008;4.752;2023-04-21T02:16:52;101583.50;;;11.14;66.09
46534;BME280;32260;52.008;4.752;2023-04-21T02:19:18;101583.44;;;11.22;65.17
46534;BME280;32260;52.008;4.752;2023-04-21T02:21:44;101590.47;;;11.24;64.03
46534;BME280;32260;52.008;4.752;2023-04-21T02:24:10;101586.91;;;11.27;64.39
46534;BME280;32260;52.008;4.752;2023-04-21T02:26:36;101584.25;;;11.27;64.85
46534;BME280;32260;52.008;4.752;2023-04-21T02:29:02;101586.91;;;11.27;64.76
46534;BME280;32260;52.008;4.752;2023-04-21T02:31:29;101584.28;;;11.24;65.35
46534;BME280;32260;52.008;4.752;2023-04-21T02:33:55;101578.13;;;11.20;65.50
46534;BME280;32260;52.008;4.752;2023-04-21T02:36:21;101570.19;;;11.19;64.55
46534;BME280;32260;52.008;4.752;2023-04-21T02:38:47;101564.88;;;11.19;63.91
46534;BME280;32260;52.008;4.752;2023-04-21T02:41:14;101554.25;;;11.20;63.85
46534;BME280;32260;52.008;4.752;2023-04-21T02:43:40;101551.59;;;11.22;64.22
46534;BME280;32260;52.008;4.752;2023-04-21T02:46:07;101559.56;;;11.20;65.25
46534;BME280;32260;52.008;4.752;2023-04-21T02:48:34;101565.78;;;11.17;65.36
46534;BME280;32260;52.008;4.752;2023-04-21T02:51:00;101569.38;;;11.13;65.84
46534;BME280;32260;52.008;4.752;2023-04-21T02:53:26;101558.75;;;11.13;64.99
46534;BME280;32260;52.008;4.752;2023-04-21T02:55:52;101549.00;;;11.15;64.43
46534;BME280;32260;52.008;4.752;2023-04-21T02:58:18;101553.44;;;11.15;65.11
46534;BME280;32260;52.008;4.752;2023-04-21T03:00:44;101547.22;;;11.16;64.85
46534;BME280;32260;52.008;4.752;2023-04-21T03:03:10;101549.00;;;11.17;64.48
46534;BME280;32260;52.008;4.752;2023-04-21T03:05:36;101555.16;;;11.17;64.63
46534;BME280;32260;52.008;4.752;2023-04-21T03:08:03;101563.16;;;11.16;65.50
46534;BME280;32260;52.008;4.752;2023-04-21T03:10:29;101564.03;;;11.15;65.43
46534;BME280;32260;52.008;4.752;2023-04-21T03:12:55;101566.69;;;11.15;66.28
46534;BME280;32260;52.008;4.752;2023-04-21T03:15:21;101566.72;;;11.12;66.08
46534;BME280;32260;52.008;4.752;2023-04-21T03:17:47;101561.44;;;11.12;65.45
46534;BME280;32260;52.008;4.752;2023-04-21T03:20:13;101552.56;;;11.14;64.74
46534;BME280;32260;52.008;4.752;2023-04-21T03:22:40;101547.22;;;11.16;64.87
46534;BME280;32260;52.008;4.752;2023-04-21T03:25:07;101561.38;;;11.15;65.70
46534;BME280;32260;52.008;4.752;2023-04-21T03:27:34;101552.59;;;11.13;65.66
46534;BME280;32260;52.008;4.752;2023-04-21T03:30:01;101541.09;;;11.11;65.13
46534;BME280;32260;52.008;4.752;2023-04-21T03:32:28;101534.91;;;11.12;64.93
46534;BME280;32260;52.008;4.752;2023-04-21T03:34:54;101528.72;;;11.11;64.84
46534;BME280;32260;52.008;4.752;2023-04-21T03:37:20;101527.78;;;11.14;65.16
46534;BME280;32260;52.008;4.752;2023-04-21T03:39:46;101535.75;;;11.14;65.40
46534;BME280;32260;52.008;4.752;2023-04-21T03:42:12;101522.50;;;11.12;65.09
46534;BME280;32260;52.008;4.752;2023-04-21T03:44:38;101524.31;;;11.12;65.74
46534;BME280;32260;52.008;4.752;2023-04-21T03:47:04;101517.22;;;11.11;65.78
46534;BME280;32260;52.008;4.752;2023-04-21T03:49:33;101515.47;;;11.10;65.94
46534;BME280;32260;52.008;4.752;2023-04-21T03:51:59;101512.88;;;11.07;65.77
46534;BME280;32260;52.008;4.752;2023-04-21T03:54:25;101503.16;;;11.06;65.62
46534;BME280;32260;52.008;4.752;2023-04-21T03:56:51;101497.84;;;11.06;65.39
46534;BME280;32260;52.008;4.752;2023-04-21T03:59:17;101497.84;;;11.06;65.67
46534;BME280;32260;52.008;4.752;2023-04-21T04:01:43;101499.63;;;11.07;65.14
46534;BME280;32260;52.008;4.752;2023-04-21T04:04:09;101489.91;;;11.03;65.81
46534;BME280;32260;52.008;4.752;2023-04-21T04:06:35;101495.25;;;10.99;66.88
46534;BME280;32260;52.008;4.752;2023-04-21T04:09:02;101502.31;;;10.99;66.30
46534;BME280;32260;52.008;4.752;2023-04-21T04:11:30;101504.13;;;10.97;67.41
46534;BME280;32260;52.008;4.752;2023-04-21T04:13:56;101506.81;;;10.95;67.05
46534;BME280;32260;52.008;4.752;2023-04-21T04:16:22;101506.81;;;10.92;67.27
46534;BME280;32260;52.008;4.752;2023-04-21T04:18:49;101499.75;;;10.94;68.11
46534;BME280;32260;52.008;4.752;2023-04-21T04:21:15;101493.53;;;10.97;66.08
46534;BME280;32260;52.008;4.752;2023-04-21T04:23:41;101496.22;;;10.92;66.88
46534;BME280;32260;52.008;4.752;2023-04-21T04:26:09;101503.22;;;10.99;67.39
46534;BME280;32260;52.008;4.752;2023-04-21T04:28:36;101505.88;;;10.99;67.41
46534;BME280;32260;52.008;4.752;2023-04-21T04:31:03;101499.69;;;11.00;67.72
46534;BME280;32260;52.008;4.752;2023-04-21T04:33:29;101500.53;;;11.01;66.88
46534;BME280;32260;52.008;4.752;2023-04-21T04:35:57;101503.19;;;11.01;67.58
46534;BME280;32260;52.008;4.752;2023-04-21T04:38:23;101503.16;;;11.03;66.96
46534;BME280;32260;52.008;4.752;2023-04-21T04:40:56;101510.22;;;11.07;66.98
46534;BME280;32260;52.008;4.752;2023-04-21T04:43:23;101495.25;;;11.01;67.35
46534;BME280;32260;52.008;4.752;2023-04-21T04:45:50;101493.50;;;11.02;67.36
46534;BME280;32260;52.008;4.752;2023-04-21T04:48:16;101507.59;;;11.02;66.75
46534;BME280;32260;52.008;4.752;2023-04-21T04:50:42;101504.97;;;11.00;67.22
46534;BME280;32260;52.008;4.752;2023-04-21T04:53:09;101513.81;;;10.99;67.21
46534;BME280;32260;52.008;4.752;2023-04-21T04:55:35;101524.44;;;10.96;67.84
46534;BME280;32260;52.008;4.752;2023-04-21T04:58:01;101517.41;;;10.94;68.12
46534;BME280;32260;52.008;4.752;2023-04-21T05:00:27;101519.16;;;10.96;67.73
46534;BME280;32260;52.008;4.752;2023-04-21T05:02:54;101515.59;;;10.97;68.65
46534;BME280;32260;52.008;4.752;2023-04-21T05:05:20;101519.13;;;10.99;67.81
46534;BME280;32260;52.008;4.752;2023-04-21T05:07:47;101511.16;;;11.01;68.25
46534;BME280;32260;52.008;4.752;2023-04-21T05:10:13;101511.13;;;11.04;68.30
46534;BME280;32260;52.008;4.752;2023-04-21T05:12:39;101508.41;;;11.09;68.03
46534;BME280;32260;52.008;4.752;2023-04-21T05:15:06;101512.81;;;11.13;67.66
46534;BME280;32260;52.008;4.752;2023-04-21T05:17:32;101512.75;;;11.16;68.15
46534;BME280;32260;52.008;4.752;2023-04-21T05:19:59;101503.88;;;11.19;67.89
46534;BME280;32260;52.008;4.752;2023-04-21T05:22:25;101511.81;;;11.20;67.83
46534;BME280;32260;52.008;4.752;2023-04-21T05:24:52;101511.81;;;11.20;68.53
46534;BME280;32260;52.008;4.752;2023-04-21T05:27:18;101517.97;;;11.24;68.42
46534;BME280;32260;52.008;4.752;2023-04-21T05:29:44;101517.03;;;11.26;68.74
46534;BME280;32260;52.008;4.752;2023-04-21T05:32:10;101528.53;;;11.28;69.28
46534;BME280;32260;52.008;4.752;2023-04-21T05:34:37;101528.50;;;11.31;68.32
46534;BME280;32260;52.008;4.752;2023-04-21T05:37:03;101525.78;;;11.35;68.28
46534;BME280;32260;52.008;4.752;2023-04-21T05:39:30;101522.25;;;11.36;68.67
46534;BME280;32260;52.008;4.752;2023-04-21T05:41:56;101531.09;;;11.38;68.56
46534;BME280;32260;52.008;4.752;2023-04-21T05:44:22;101531.09;;;11.38;68.73
46534;BME280;32260;52.008;4.752;2023-04-21T05:46:50;101539.88;;;11.40;68.50
46534;BME280;32260;52.008;4.752;2023-04-21T05:49:16;101527.47;;;11.42;68.33
46534;BME280;32260;52.008;4.752;2023-04-21T05:51:42;101535.38;;;11.45;67.69
46534;BME280;32260;52.008;4.752;2023-04-21T05:54:08;101539.78;;;11.49;68.09
46534;BME280;32260;52.008;4.752;2023-04-21T05:56:34;101543.28;;;11.53;68.55
46534;BME280;32260;52.008;4.752;2023-04-21T05:59:00;101545.88;;;11.56;68.22
46534;BME280;32260;52.008;4.752;2023-04-21T06:01:26;101548.47;;;11.60;68.22
46534;BME280;32260;52.008;4.752;2023-04-21T06:03:52;101544.84;;;11.68;68.26
46534;BME280;32260;52.008;4.752;2023-04-21T06:06:18;101547.44;;;11.72;68.36
46534;BME280;32260;52.008;4.752;2023-04-21T06:08:44;101544.72;;;11.77;67.77
46534;BME280;32260;52.008;4.752;2023-04-21T06:11:10;101534.00;;;11.83;68.10
46534;BME280;32260;52.008;4.752;2023-04-21T06:13:37;101532.16;;;11.88;68.26
46534;BME280;32260;52.008;4.752;2023-04-21T06:16:03;101540.97;;;11.92;68.27
46534;BME280;32260;52.008;4.752;2023-04-21T06:18:29;101538.25;;;11.95;67.97
46534;BME280;32260;52.008;4.752;2023-04-21T06:20:55;101540.91;;;11.98;68.13
46534;BME280;32260;52.008;4.752;2023-04-21T06:23:21;101547.94;;;12.01;68.40
46534;BME280;32260;52.008;4.752;2023-04-21T06:25:59;101541.66;;;12.08;68.40
46534;BME280;32260;52.008;4.752;2023-04-21T06:28:25;101547.13;;;11.97;68.44
46534;BME280;32260;52.008;4.752;2023-04-21T06:30:51;101546.22;;;11.95;68.96
46534;BME280;32260;52.008;4.752;2023-04-21T06:33:17;101539.09;;;12.02;68.20
46534;BME280;32260;52.008;4.752;2023-04-21T06:35:43;101531.03;;;12.08;68.28
46534;BME280;32260;52.008;4.752;2023-04-21T06:38:09;101533.53;;;12.17;68.34
46534;BME280;32260;52.008;4.752;2023-04-21T06:40:35;101544.03;;;12.25;68.38
46534;BME280;32260;52.008;4.752;2023-04-21T06:43:01;101530.63;;;12.34;67.82
46534;BME280;32260;52.008;4.752;2023-04-21T06:45:27;101536.69;;;12.41;68.23
46534;BME280;32260;52.008;4.752;2023-04-21T06:47:53;101538.34;;;12.48;68.26
46534;BME280;32260;52.008;4.752;2023-04-21T06:50:19;101532.94;;;12.54;68.20
46534;BME280;32260;52.008;4.752;2023-04-21T06:52:45;101531.06;;;12.59;68.35
46534;BME280;32260;52.008;4.752;2023-04-21T06:55:11;101523.88;;;12.65;68.72
46534;BME280;32260;52.008;4.752;2023-04-21T06:57:37;101533.59;;;12.69;68.31
46534;BME280;32260;52.008;4.752;2023-04-21T07:00:04;101526.47;;;12.69;69.06
46534;BME280;32260;52.008;4.752;2023-04-21T07:02:30;101532.53;;;12.77;68.84
46534;BME280;32260;52.008;4.752;2023-04-21T07:04:56;101525.41;;;12.79;68.51
46534;BME280;32260;52.008;4.752;2023-04-21T07:07:22;101526.25;;;12.82;68.21
46534;BME280;32260;52.008;4.752;2023-04-21T07:09:54;101527.94;;;12.86;68.43
46534;BME280;32260;52.008;4.752;2023-04-21T07:12:20;101527.22;;;12.76;68.22
46534;BME280;32260;52.008;4.752;2023-04-21T07:14:47;101525.50;;;12.73;67.56
46534;BME280;32260;52.008;4.752;2023-04-21T07:17:15;101531.69;;;12.75;67.93
46534;BME280;32260;52.008;4.752;2023-04-21T07:19:41;101531.59;;;12.80;68.02
46534;BME280;32260;52.008;4.752;2023-04-21T07:22:07;101516.56;;;12.79;68.59
46534;BME280;32260;52.008;4.752;2023-04-21T07:24:33;101521.00;;;12.78;68.16
46534;BME280;32260;52.008;4.752;2023-04-21T07:27:00;101524.41;;;12.85;67.37
46534;BME280;32260;52.008;4.752;2023-04-21T07:29:27;101530.59;;;12.87;67.37
46534;BME280;32260;52.008;4.752;2023-04-21T07:31:54;101526.19;;;12.86;67.52
46534;BME280;32260;52.008;4.752;2023-04-21T07:34:21;101528.88;;;12.83;67.60
46534;BME280;32260;52.008;4.752;2023-04-21T07:36:47;101521.84;;;12.81;66.97
46534;BME280;32260;52.008;4.752;2023-04-21T07:39:13;101521.78;;;12.84;67.27
46534;BME280;32260;52.008;4.752;2023-04-21T07:41:39;101533.25;;;12.87;67.19
46534;BME280;32260;52.008;4.752;2023-04-21T07:44:05;101529.53;;;12.96;66.77
46534;BME280;32260;52.008;4.752;2023-04-21T07:46:31;101526.00;;;12.95;67.14
46534;BME280;32260;52.008;4.752;2023-04-21T07:48:58;101529.44;;;13.02;66.09
46534;BME280;32260;52.008;4.752;2023-04-21T07:51:25;101531.03;;;13.09;66.29
46534;BME280;32260;52.008;4.752;2023-04-21T07:53:52;101529.97;;;13.18;66.34
46534;BME280;32260;52.008;4.752;2023-04-21T07:56:18;101529.13;;;13.18;66.03
46534;BME280;32260;52.008;4.752;2023-04-21T07:58:45;101528.06;;;13.26;66.03
46534;BME280;32260;52.008;4.752;2023-04-21T08:01:11;101524.50;;;13.27;65.46
46534;BME280;32260;52.008;4.752;2023-04-21T08:03:37;101528.06;;;13.26;65.33
46534;BME280;32260;52.008;4.752;2023-04-21T08:06:03;101535.00;;;13.34;65.06
46534;BME280;32260;52.008;4.752;2023-04-21T08:08:30;101526.75;;;13.48;65.60
46534;BME280;32260;52.008;4.752;2023-04-21T08:10:56;101518.69;;;13.52;65.57
46534;BME280;32260;52.008;4.752;2023-04-21T08:13:22;101523.03;;;13.56;65.67
46534;BME280;32260;52.008;4.752;2023-04-21T08:15:51;101530.75;;;13.69;65.43
46534;BME280;32260;52.008;4.752;2023-04-21T08:18:18;101530.75;;;13.69;65.25
46534;BME280;32260;52.008;4.752;2023-04-21T08:20:45;101529.75;;;13.73;65.45
46534;BME280;32260;52.008;4.752;2023-04-21T08:23:13;101533.09;;;13.83;65.35
46534;BME280;32260;52.008;4.752;2023-04-21T08:25:39;101519.47;;;13.97;65.55
46534;BME280;32260;52.008;4.752;2023-04-21T08:28:06;101518.31;;;14.08;65.54
46534;BME280;32260;52.008;4.752;2023-04-21T08:30:32;101522.78;;;14.06;63.62
46534;BME280;32260;52.008;4.752;2023-04-21T08:32:58;101513.63;;;14.18;64.49
46534;BME280;32260;52.008;4.752;2023-04-21T08:35:24;101512.50;;;14.29;64.65
46534;BME280;32260;52.008;4.752;2023-04-21T08:37:51;101511.19;;;14.45;64.21
46534;BME280;32260;52.008;4.752;2023-04-21T08:40:17;101510.00;;;14.57;64.13
46534;BME280;32260;52.008;4.752;2023-04-21T08:42:44;101517.78;;;14.68;63.65
46534;BME280;32260;52.008;4.752;2023-04-21T08:45:10;101515.75;;;14.76;63.27
46534;BME280;32260;52.008;4.752;2023-04-21T08:47:39;101510.13;;;14.87;63.17
46534;BME280;32260;52.008;4.752;2023-04-21T08:50:11;101510.94;;;14.89;62.74
46534;BME280;32260;52.008;4.752;2023-04-21T08:52:37;101506.22;;;14.99;62.87
46534;BME280;32260;52.008;4.752;2023-04-21T08:55:05;101508.16;;;14.94;61.69
46534;BME280;32260;52.008;4.752;2023-04-21T08:57:32;101511.72;;;14.94;61.73
46534;BME280;32260;52.008;4.752;2023-04-21T08:59:58;101506.06;;;15.05;61.85
46534;BME280;32260;52.008;4.752;2023-04-21T09:02:25;101504.94;;;15.14;62.07
46534;BME280;32260;52.008;4.752;2023-04-21T09:04:51;101500.13;;;15.27;61.65
46534;BME280;32260;52.008;4.752;2023-04-21T09:07:39;101491.59;;;15.44;61.37
46534;BME280;32260;52.008;4.752;2023-04-21T09:10:06;101491.72;;;15.41;61.75
46534;BME280;32260;52.008;4.752;2023-04-21T09:12:32;101485.28;;;15.46;60.73
46534;BME280;32260;52.008;4.752;2023-04-21T09:15:04;101497.34;;;15.60;60.33
46534;BME280;32260;52.008;4.752;2023-04-21T09:17:31;101501.91;;;15.56;60.26
46534;BME280;32260;52.008;4.752;2023-04-21T09:20:13;101499.22;;;15.58;60.05
46534;BME280;32260;52.008;4.752;2023-04-21T09:22:40;101489.91;;;15.41;60.08
46534;BME280;32260;52.008;4.752;2023-04-21T09:25:06;101498.56;;;15.49;60.24
46534;BME280;32260;52.008;4.752;2023-04-21T09:27:36;101496.50;;;15.59;61.24
46534;BME280;32260;52.008;4.752;2023-04-21T09:30:04;101495.41;;;15.65;61.06
46534;BME280;32260;52.008;4.752;2023-04-21T09:32:38;101495.81;;;15.81;60.17
46534;BME280;32260;52.008;4.752;2023-04-21T09:35:08;101494.88;;;15.83;59.66
46534;BME280;32260;52.008;4.752;2023-04-21T09:37:35;101481.25;;;15.91;60.05
46534;BME280;32260;52.008;4.752;2023-04-21T09:40:01;101480.31;;;15.94;59.44
46534;BME280;32260;52.008;4.752;2023-04-21T09:42:30;101475.72;;;15.97;58.75
46534;BME280;32260;52.008;4.752;2023-04-21T09:44:56;101476.41;;;16.04;59.10
46534;BME280;32260;52.008;4.752;2023-04-21T09:47:23;101481.44;;;16.13;58.75
46534;BME280;32260;52.008;4.752;2023-04-21T09:49:52;101481.19;;;16.21;58.91
46534;BME280;32260;52.008;4.752;2023-04-21T09:52:20;101475.47;;;16.32;58.75
46534;BME280;32260;52.008;4.752;2023-04-21T09:54:51;101472.44;;;16.43;58.57
46534;BME280;32260;52.008;4.752;2023-04-21T09:57:24;101479.38;;;16.48;58.10
46534;BME280;32260;52.008;4.752;2023-04-21T09:59:59;101482.81;;;16.52;57.07
46534;BME280;32260;52.008;4.752;2023-04-21T10:02:26;101470.91;;;16.61;57.95
46534;BME280;32260;52.008;4.752;2023-04-21T10:04:55;101465.13;;;16.73;57.58
46534;BME280;32260;52.008;4.752;2023-04-21T10:07:21;101475.41;;;16.86;56.67
46534;BME280;32260;52.008;4.752;2023-04-21T10:09:51;101470.53;;;16.98;55.86
46534;BME280;32260;52.008;4.752;2023-04-21T10:12:21;101476.75;;;16.99;55.45
46534;BME280;32260;52.008;4.752;2023-04-21T10:14:55;101481.63;;;17.11;54.63
46534;BME280;32260;52.008;4.752;2023-04-21T10:17:24;101464.47;;;17.17;55.97
46534;BME280;32260;52.008;4.752;2023-04-21T10:19:52;101460.81;;;17.20;54.61
46534;BME280;32260;52.008;4.752;2023-04-21T10:22:29;101454.28;;;17.27;53.22
46534;BME280;32260;52.008;4.752;2023-04-21T10:24:57;101455.63;;;17.39;54.27
46534;BME280;32260;52.008;4.752;2023-04-21T10:27:43;101457.66;;;17.56;54.62
46534;BME280;32260;52.008;4.752;2023-04-21T10:30:24;101463.47;;;17.66;54.17
46534;BME280;32260;52.008;4.752;2023-04-21T10:33:06;101453.34;;;17.74;54.29
46534;BME280;32260;52.008;4.752;2023-04-21T10:36:00;101442.19;;;17.85;52.38
46534;BME280;32260;52.008;4.752;2023-04-21T10:38:42;101447.22;;;17.92;52.85
46534;BME280;32260;52.008;4.752;2023-04-21T10:41:30;101436.50;;;17.92;51.63
46534;BME280;32260;52.008;4.752;2023-04-21T10:44:00;101431.94;;;17.96;52.25
46534;BME280;32260;52.008;4.752;2023-04-21T10:46:35;101427.81;;;18.09;52.68
46534;BME280;32260;52.008;4.752;2023-04-21T10:54:41;101411.72;;;18.51;54.22
46534;BME280;32260;52.008;4.752;2023-04-21T10:57:11;101407.41;;;18.67;52.79
46534;BME280;32260;52.008;4.752;2023-04-21T10:59:38;101404.91;;;18.83;52.92
46534;BME280;32260;52.008;4.752;2023-04-21T11:02:06;101411.25;;;19.01;53.11
46534;BME280;32260;52.008;4.752;2023-04-21T11:04:33;101398.91;;;19.16;50.97
46534;BME280;32260;52.008;4.752;2023-04-21T11:07:17;101398.34;;;19.48;51.26
46534;BME280;32260;52.008;4.752;2023-04-21T11:09:57;101392.53;;;19.75;50.12
46534;BME280;32260;52.008;4.752;2023-04-21T11:12:27;101391.97;;;20.04;50.71
46534;BME280;32260;52.008;4.752;2023-04-21T11:14:54;101387.69;;;20.18;51.00
46534;BME280;32260;52.008;4.752;2023-04-21T11:17:20;101385.50;;;20.26;49.28
46534;BME280;32260;52.008;4.752;2023-04-21T11:19:57;101378.91;;;20.32;49.87
46534;BME280;32260;52.008;4.752;2023-04-21T11:22:24;101376.13;;;20.33;50.35
46534;BME280;32260;52.008;4.752;2023-04-21T11:24:54;101371.84;;;20.47;48.85
46534;BME280;32260;52.008;4.752;2023-04-21T11:27:21;101365.97;;;20.74;50.28
46534;BME280;32260;52.008;4.752;2023-04-21T11:29:48;101362.31;;;20.91;48.71
46534;BME280;32260;52.008;4.752;2023-04-21T11:32:15;101362.94;;;20.96;48.11
46534;BME280;32260;52.008;4.752;2023-04-21T11:34:41;101365.00;;;20.91;48.75
46534;BME280;32260;52.008;4.752;2023-04-21T11:37:13;101359.03;;;20.68;46.96
46534;BME280;32260;52.008;4.752;2023-04-21T11:39:40;101357.81;;;20.58;49.27
46534;BME280;32260;52.008;4.752;2023-04-21T11:42:07;101355.53;;;20.50;48.46
46534;BME280;32260;52.008;4.752;2023-04-21T11:44:35;101347.28;;;20.53;49.23
46534;BME280;32260;52.008;4.752;2023-04-21T11:47:12;101354.31;;;20.56;47.91
46534;BME280;32260;52.008;4.752;2023-04-21T11:49:48;101345.13;;;20.60;47.78
46534;BME280;32260;52.008;4.752;2023-04-21T11:52:34;101347.31;;;20.69;47.21
46534;BME280;32260;52.008;4.752;2023-04-21T11:55:05;101334.34;;;20.60;49.07
46534;BME280;32260;52.008;4.752;2023-04-21T11:57:32;101338.34;;;20.52;47.90
46534;BME280;32260;52.008;4.752;2023-04-21T12:00:00;101335.38;;;20.57;48.84
46534;BME280;32260;52.008;4.752;2023-04-21T12:02:29;101334.00;;;20.66;47.24
46534;BME280;32260;52.008;4.752;2023-04-21T12:04:57;101335.66;;;20.86;47.90
46534;BME280;32260;52.008;4.752;2023-04-21T12:07:24;101340.16;;;20.85;47.05
46534;BME280;32260;52.008;4.752;2023-04-21T12:09:53;101330.09;;;20.89;46.45
46534;BME280;32260;52.008;4.752;2023-04-21T12:12:21;101338.06;;;20.91;47.60
46534;BME280;32260;52.008;4.752;2023-04-21T12:14:49;101335.22;;;20.78;46.08
46534;BME280;32260;52.008;4.752;2023-04-21T12:17:16;101332.75;;;20.73;47.40
46534;BME280;32260;52.008;4.752;2023-04-21T12:19:42;101318.81;;;20.82;47.65
46534;BME280;32260;52.008;4.752;2023-04-21T12:22:13;101310.09;;;20.93;46.31
46534;BME280;32260;52.008;4.752;2023-04-21T12:24:40;101309.59;;;21.19;46.19
46534;BME280;32260;52.008;4.752;2023-04-21T12:27:09;101308.59;;;21.36;46.74
46534;BME280;32260;52.008;4.752;2023-04-21T12:29:36;101310.09;;;21.41;46.24
46534;BME280;32260;52.008;4.752;2023-04-21T12:32:05;101307.88;;;21.48;45.87
46534;BME280;32260;52.008;4.752;2023-04-21T12:34:31;101300.84;;;21.61;44.29
46534;BME280;32260;52.008;4.752;2023-04-21T12:36:57;101300.59;;;21.50;44.25
46534;BME280;32260;52.008;4.752;2023-04-21T12:39:23;101311.50;;;21.32;44.17
46534;BME280;32260;52.008;4.752;2023-04-21T12:41:50;101295.22;;;21.18;43.46
46534;BME280;32260;52.008;4.752;2023-04-21T12:44:16;101297.91;;;21.34;44.95
46534;BME280;32260;52.008;4.752;2023-04-21T12:46:42;101295.13;;;21.36;44.92
46534;BME280;32260;52.008;4.752;2023-04-21T12:49:08;101285.56;;;21.46;44.83
46534;BME280;32260;52.008;4.752;2023-04-21T12:51:35;101290.41;;;21.55;44.41
46534;BME280;32260;52.008;4.752;2023-04-21T12:54:02;101286.91;;;21.53;43.58
46534;BME280;32260;52.008;4.752;2023-04-21T12:56:28;101278.81;;;21.53;44.74
46534;BME280;32260;52.008;4.752;2023-04-21T12:58:54;101277.53;;;21.60;43.64